sensor_id;sensor_type;location;lat;lon;timestamp;temperature;humidity
16578;DHT22;8401;52.528;13.340;2024-03-25T00:00:16;6.10;99.90
16578;DHT22;8401;52.528;13.340;2024-03-25T00:02:42;6.10;99.90
16578;DHT22;8401;52.528;13.340;2024-03-25T00:05:08;6.10;99.90
16578;DHT22;8401;52.528;13.340;2024-03-25T00:07:39;6.10;99.90
16578;DHT22;8401;52.528;13.340;2024-03-25T00:10:05;6.10;99.90
16578;DHT22;8401;52.528;13.340;2024-03-25T00:12:33;6.10;99.90
16578;DHT22;8401;52.528;13.340;2024-03-25T00:14:59;6.10;99.90
16578;DHT22;8401;52.528;13.340;2024-03-25T00:17:25;6.10;99.90
16578;DHT22;8401;52.528;13.340;2024-03-25T00:19:50;6.10;99.90
16578;DHT22;8401;52.528;13.340;2024-03-25T00:22:20;6.10;99.90
16578;DHT22;8401;52.528;13.340;2024-03-25T00:24:46;6.10;99.90
16578;DHT22;8401;52.528;13.340;2024-03-25T00:27:13;6.10;99.90
16578;DHT22;8401;52.528;13.340;2024-03-25T00:29:38;6.20;99.90
16578;DHT22;8401;52.528;13.340;2024-03-25T00:32:05;6.20;99.90
16578;DHT22;8401;52.528;13.340;2024-03-25T00:34:31;6.20;99.90
16578;DHT22;8401;52.528;13.340;2024-03-25T00:36:58;6.20;99.90
16578;DHT22;8401;52.528;13.340;2024-03-25T00:39:23;6.20;99.90
16578;DHT22;8401;52.528;13.340;2024-03-25T00:41:49;6.20;99.90
16578;DHT22;8401;52.528;13.340;2024-03-25T00:44:15;6.20;99.90
16578;DHT22;8401;52.528;13.340;2024-03-25T00:46:40;6.20;99.90
16578;DHT22;8401;52.528;13.340;2024-03-25T00:49:07;6.20;99.90
16578;DHT22;8401;52.528;13.340;2024-03-25T00:51:33;6.20;99.90
16578;DHT22;8401;52.528;13.340;2024-03-25T00:53:59;6.20;99.90
16578;DHT22;8401;52.528;13.340;2024-03-25T00:56:25;6.20;99.90
16578;DHT22;8401;52.528;13.340;2024-03-25T00:58:50;6.20;99.90
16578;DHT22;8401;52.528;13.340;2024-03-25T01:01:16;6.20;99.90
16578;DHT22;8401;52.528;13.340;2024-03-25T01:03:41;6.20;99.90
16578;DHT22;8401;52.528;13.340;2024-03-25T01:06:07;6.20;99.90
16578;DHT22;8401;52.528;13.340;2024-03-25T01:08:33;6.20;99.90
16578;DHT22;8401;52.528;13.340;2024-03-25T01:10:59;6.20;99.90
16578;DHT22;8401;52.528;13.340;2024-03-25T01:13:25;6.20;99.90
16578;DHT22;8401;52.528;13.340;2024-03-25T01:15:51;6.20;99.90
16578;DHT22;8401;52.528;13.340;2024-03-25T01:18:17;6.20;99.90
16578;DHT22;8401;52.528;13.340;2024-03-25T01:20:43;6.20;99.90
16578;DHT22;8401;52.528;13.340;2024-03-25T01:23:09;6.20;99.90
16578;DHT22;8401;52.528;13.340;2024-03-25T01:25:35;6.30;99.90
16578;DHT22;8401;52.528;13.340;2024-03-25T01:28:01;6.30;99.90
16578;DHT22;8401;52.528;13.340;2024-03-25T01:30:27;6.30;99.90
16578;DHT22;8401;52.528;13.340;2024-03-25T01:32:54;6.40;99.90
16578;DHT22;8401;52.528;13.340;2024-03-25T01:35:19;6.30;99.90
16578;DHT22;8401;52.528;13.340;2024-03-25T01:37:46;6.30;99.90
16578;DHT22;8401;52.528;13.340;2024-03-25T01:40:11;6.30;99.90
16578;DHT22;8401;52.528;13.340;2024-03-25T01:42:37;6.30;99.90
16578;DHT22;8401;52.528;13.340;2024-03-25T01:45:04;6.30;99.90
16578;DHT22;8401;52.528;13.340;2024-03-25T01:47:31;6.40;99.90
16578;DHT22;8401;52.528;13.340;2024-03-25T01:49:59;6.40;99.90
16578;DHT22;8401;52.528;13.340;2024-03-25T01:52:26;6.30;99.90
16578;DHT22;8401;52.528;13.340;2024-03-25T01:54:53;6.30;99.90
16578;DHT22;8401;52.528;13.340;2024-03-25T01:57:20;6.20;99.90
16578;DHT22;8401;52.528;13.340;2024-03-25T01:59:46;6.20;99.90
16578;DHT22;8401;52.528;13.340;2024-03-25T02:02:12;6.10;99.90
16578;DHT22;8401;52.528;13.340;2024-03-25T02:04:39;6.10;99.90
16578;DHT22;8401;52.528;13.340;2024-03-25T02:07:07;6.00;99.90
16578;DHT22;8401;52.528;13.340;2024-03-25T02:09:33;5.90;99.90
16578;DHT22;8401;52.528;13.340;2024-03-25T02:12:01;5.90;99.90
16578;DHT22;8401;52.528;13.340;2024-03-25T02:14:27;5.90;99.90
16578;DHT22;8401;52.528;13.340;2024-03-25T02:16:52;5.90;99.90
16578;DHT22;8401;52.528;13.340;2024-03-25T02:19:18;5.90;99.90
16578;DHT22;8401;52.528;13.340;2024-03-25T02:21:44;5.90;99.90
16578;DHT22;8401;52.528;13.340;2024-03-25T02:24:11;5.90;99.90
16578;DHT22;8401;52.528;13.340;2024-03-25T02:26:37;5.90;99.90
16578;DHT22;8401;52.528;13.340;2024-03-25T02:29:03;5.90;99.90
16578;DHT22;8401;52.528;13.340;2024-03-25T02:31:29;5.90;99.90
16578;DHT22;8401;52.528;13.340;2024-03-25T02:33:54;5.90;99.90
16578;DHT22;8401;52.528;13.340;2024-03-25T02:36:20;6.00;99.90
16578;DHT22;8401;52.528;13.340;2024-03-25T02:38:45;6.00;99.90
16578;DHT22;8401;52.528;13.340;2024-03-25T02:41:11;5.90;99.90
16578;DHT22;8401;52.528;13.340;2024-03-25T02:43:37;6.00;99.90
16578;DHT22;8401;52.528;13.340;2024-03-25T02:46:02;6.00;99.90
16578;DHT22;8401;52.528;13.340;2024-03-25T02:48:28;6.10;99.90
16578;DHT22;8401;52.528;13.340;2024-03-25T02:50:53;6.00;99.90
16578;DHT22;8401;52.528;13.340;2024-03-25T02:53:19;5.90;99.90
16578;DHT22;8401;52.528;13.340;2024-03-25T02:55:45;5.80;99.90
16578;DHT22;8401;52.528;13.340;2024-03-25T02:58:10;5.80;99.90
16578;DHT22;8401;52.528;13.340;2024-03-25T03:00:36;5.90;99.90
16578;DHT22;8401;52.528;13.340;2024-03-25T03:03:01;5.90;99.90
16578;DHT22;8401;52.528;13.340;2024-03-25T03:05:28;5.80;99.90
16578;DHT22;8401;52.528;13.340;2024-03-25T03:07:54;6.00;99.90
16578;DHT22;8401;52.528;13.340;2024-03-25T03:10:19;6.00;99.90
16578;DHT22;8401;52.528;13.340;2024-03-25T03:12:45;6.00;99.90
16578;DHT22;8401;52.528;13.340;2024-03-25T03:15:11;6.00;99.90
16578;DHT22;8401;52.528;13.340;2024-03-25T03:17:37;6.00;99.90
16578;DHT22;8401;52.528;13.340;2024-03-25T03:20:02;6.00;99.90
16578;DHT22;8401;52.528;13.340;2024-03-25T03:22:28;5.90;99.90
16578;DHT22;8401;52.528;13.340;2024-03-25T03:24:54;5.90;99.90
16578;DHT22;8401;52.528;13.340;2024-03-25T03:27:19;5.90;99.90
16578;DHT22;8401;52.528;13.340;2024-03-25T03:29:45;5.80;99.90
16578;DHT22;8401;52.528;13.340;2024-03-25T03:32:11;5.90;99.90
16578;DHT22;8401;52.528;13.340;2024-03-25T03:34:36;5.90;99.90
16578;DHT22;8401;52.528;13.340;2024-03-25T03:37:02;5.90;99.90
16578;DHT22;8401;52.528;13.340;2024-03-25T03:39:27;5.90;99.90
16578;DHT22;8401;52.528;13.340;2024-03-25T03:41:53;5.90;99.90
16578;DHT22;8401;52.528;13.340;2024-03-25T03:44:18;5.90;99.90
16578;DHT22;8401;52.528;13.340;2024-03-25T03:46:44;6.00;99.90
16578;DHT22;8401;52.528;13.340;2024-03-25T03:49:10;6.00;99.90
16578;DHT22;8401;52.528;13.340;2024-03-25T03:51:35;6.00;99.90
16578;DHT22;8401;52.528;13.340;2024-03-25T03:54:01;6.00;99.90
16578;DHT22;8401;52.528;13.340;2024-03-25T03:56:27;6.00;99.90
16578;DHT22;8401;52.528;13.340;2024-03-25T03:58:52;5.90;99.90
16578;DHT22;8401;52.528;13.340;2024-03-25T04:01:18;6.00;99.90
16578;DHT22;8401;52.528;13.340;2024-03-25T04:03:44;5.90;99.90
16578;DHT22;8401;52.528;13.340;2024-03-25T04:06:13;5.80;99.90
16578;DHT22;8401;52.528;13.340;2024-03-25T04:08:40;5.80;99.90
16578;DHT22;8401;52.528;13.340;2024-03-25T04:11:06;5.80;99.90
16578;DHT22;8401;52.528;13.340;2024-03-25T04:13:35;5.80;99.90
16578;DHT22;8401;52.528;13.340;2024-03-25T04:16:02;5.80;99.90
16578;DHT22;8401;52.528;13.340;2024-03-25T04:18:29;5.80;99.90
16578;DHT22;8401;52.528;13.340;2024-03-25T04:20:54;5.80;99.90
16578;DHT22;8401;52.528;13.340;2024-03-25T04:23:20;5.80;99.90
16578;DHT22;8401;52.528;13.340;2024-03-25T04:25:46;5.90;99.90
16578;DHT22;8401;52.528;13.340;2024-03-25T04:28:11;5.90;99.90
16578;DHT22;8401;52.528;13.340;2024-03-25T04:30:37;5.80;99.90
16578;DHT22;8401;52.528;13.340;2024-03-25T04:33:02;5.80;99.90
16578;DHT22;8401;52.528;13.340;2024-03-25T04:35:28;5.90;99.90
16578;DHT22;8401;52.528;13.340;2024-03-25T04:37:54;5.90;99.90
16578;DHT22;8401;52.528;13.340;2024-03-25T04:40:22;5.90;99.90
16578;DHT22;8401;52.528;13.340;2024-03-25T04:42:48;5.90;99.90
16578;DHT22;8401;52.528;13.340;2024-03-25T04:45:14;5.90;99.90
16578;DHT22;8401;52.528;13.340;2024-03-25T04:47:40;5.90;99.90
16578;DHT22;8401;52.528;13.340;2024-03-25T04:50:06;5.90;99.90
16578;DHT22;8401;52.528;13.340;2024-03-25T04:52:32;5.90;99.90
16578;DHT22;8401;52.528;13.340;2024-03-25T04:54:59;5.90;99.90
16578;DHT22;8401;52.528;13.340;2024-03-25T04:57:24;5.90;99.90
16578;DHT22;8401;52.528;13.340;2024-03-25T04:59:50;5.90;99.90
16578;DHT22;8401;52.528;13.340;2024-03-25T05:02:16;6.00;99.90
16578;DHT22;8401;52.528;13.340;2024-03-25T05:04:41;6.00;99.90
16578;DHT22;8401;52.528;13.340;2024-03-25T05:07:07;5.90;99.90
16578;DHT22;8401;52.528;13.340;2024-03-25T05:09:33;6.00;99.90
16578;DHT22;8401;52.528;13.340;2024-03-25T05:11:58;6.00;99.90
16578;DHT22;8401;52.528;13.340;2024-03-25T05:14:24;6.00;99.90
16578;DHT22;8401;52.528;13.340;2024-03-25T05:16:50;6.00;99.90
16578;DHT22;8401;52.528;13.340;2024-03-25T05:19:17;6.00;99.90
16578;DHT22;8401;52.528;13.340;2024-03-25T05:21:43;5.90;99.90
16578;DHT22;8401;52.528;13.340;2024-03-25T05:24:09;5.90;99.90
16578;DHT22;8401;52.528;13.340;2024-03-25T05:26:35;5.90;99.90
16578;DHT22;8401;52.528;13.340;2024-03-25T05:29:00;5.90;99.90
16578;DHT22;8401;52.528;13.340;2024-03-25T05:31:26;5.90;99.90
16578;DHT22;8401;52.528;13.340;2024-03-25T05:33:52;5.80;99.90
16578;DHT22;8401;52.528;13.340;2024-03-25T05:36:17;5.90;99.90
16578;DHT22;8401;52.528;13.340;2024-03-25T05:38:43;5.90;99.90
16578;DHT22;8401;52.528;13.340;2024-03-25T05:41:11;5.90;99.90
16578;DHT22;8401;52.528;13.340;2024-03-25T05:43:38;5.90;99.90
16578;DHT22;8401;52.528;13.340;2024-03-25T05:46:03;5.90;99.90
16578;DHT22;8401;52.528;13.340;2024-03-25T05:48:29;5.90;99.90
16578;DHT22;8401;52.528;13.340;2024-03-25T05:51:01;5.90;99.90
16578;DHT22;8401;52.528;13.340;2024-03-25T05:53:28;5.90;99.90
16578;DHT22;8401;52.528;13.340;2024-03-25T05:55:54;6.00;99.90
16578;DHT22;8401;52.528;13.340;2024-03-25T05:58:20;6.00;99.90
16578;DHT22;8401;52.528;13.340;2024-03-25T06:00:49;6.00;99.90
16578;DHT22;8401;52.528;13.340;2024-03-25T06:03:16;6.00;99.90
16578;DHT22;8401;52.528;13.340;2024-03-25T06:05:42;6.00;99.90
16578;DHT22;8401;52.528;13.340;2024-03-25T06:08:08;6.00;99.90
16578;DHT22;8401;52.528;13.340;2024-03-25T06:10:41;6.00;99.90
16578;DHT22;8401;52.528;13.340;2024-03-25T06:13:07;6.00;99.90
16578;DHT22;8401;52.528;13.340;2024-03-25T06:15:32;6.10;99.90
16578;DHT22;8401;52.528;13.340;2024-03-25T06:17:58;6.10;99.90
16578;DHT22;8401;52.528;13.340;2024-03-25T06:20:24;6.10;99.90
16578;DHT22;8401;52.528;13.340;2024-03-25T06:22:49;6.10;99.90
16578;DHT22;8401;52.528;13.340;2024-03-25T06:25:16;6.00;99.90
16578;DHT22;8401;52.528;13.340;2024-03-25T06:27:42;6.10;99.90
16578;DHT22;8401;52.528;13.340;2024-03-25T06:30:09;6.00;99.90
16578;DHT22;8401;52.528;13.340;2024-03-25T06:32:54;6.00;99.90
16578;DHT22;8401;52.528;13.340;2024-03-25T06:35:38;6.10;99.90
16578;DHT22;8401;52.528;13.340;2024-03-25T06:38:04;6.10;99.90
16578;DHT22;8401;52.528;13.340;2024-03-25T06:40:30;6.10;99.90
16578;DHT22;8401;52.528;13.340;2024-03-25T06:42:56;6.10;99.90
16578;DHT22;8401;52.528;13.340;2024-03-25T06:45:22;6.10;99.90
16578;DHT22;8401;52.528;13.340;2024-03-25T06:47:47;6.10;99.90
16578;DHT22;8401;52.528;13.340;2024-03-25T06:50:13;6.10;99.90
16578;DHT22;8401;52.528;13.340;2024-03-25T06:52:39;6.10;99.90
16578;DHT22;8401;52.528;13.340;2024-03-25T06:55:05;6.10;99.90
16578;DHT22;8401;52.528;13.340;2024-03-25T06:57:30;6.10;99.90
16578;DHT22;8401;52.528;13.340;2024-03-25T06:59:56;6.00;99.90
16578;DHT22;8401;52.528;13.340;2024-03-25T07:02:23;6.10;99.90
16578;DHT22;8401;52.528;13.340;2024-03-25T07:04:49;6.10;99.90
16578;DHT22;8401;52.528;13.340;2024-03-25T07:07:14;6.00;99.90
16578;DHT22;8401;52.528;13.340;2024-03-25T07:09:40;6.00;99.90
16578;DHT22;8401;52.528;13.340;2024-03-25T07:12:06;6.00;99.90
16578;DHT22;8401;52.528;13.340;2024-03-25T07:14:32;6.00;99.90
16578;DHT22;8401;52.528;13.340;2024-03-25T07:16:58;5.90;99.90
16578;DHT22;8401;52.528;13.340;2024-03-25T07:19:24;5.90;99.90
16578;DHT22;8401;52.528;13.340;2024-03-25T07:21:49;5.90;99.90
16578;DHT22;8401;52.528;13.340;2024-03-25T07:24:15;5.90;99.90
16578;DHT22;8401;52.528;13.340;2024-03-25T07:26:40;5.90;99.90
16578;DHT22;8401;52.528;13.340;2024-03-25T07:29:06;6.00;99.90
16578;DHT22;8401;52.528;13.340;2024-03-25T07:31:32;5.90;99.90
16578;DHT22;8401;52.528;13.340;2024-03-25T07:33:57;6.00;99.90
16578;DHT22;8401;52.528;13.340;2024-03-25T07:36:23;5.90;99.90
16578;DHT22;8401;52.528;13.340;2024-03-25T07:38:48;6.00;99.90
16578;DHT22;8401;52.528;13.340;2024-03-25T07:41:14;6.00;99.90
16578;DHT22;8401;52.528;13.340;2024-03-25T07:43:39;6.00;99.90
16578;DHT22;8401;52.528;13.340;2024-03-25T07:46:05;6.00;99.90
16578;DHT22;8401;52.528;13.340;2024-03-25T07:48:31;6.00;99.90
16578;DHT22;8401;52.528;13.340;2024-03-25T07:50:56;6.00;99.90
16578;DHT22;8401;52.528;13.340;2024-03-25T07:53:22;6.00;99.90
16578;DHT22;8401;52.528;13.340;2024-03-25T07:55:47;6.00;99.90
16578;DHT22;8401;52.528;13.340;2024-03-25T07:58:13;6.00;99.90
16578;DHT22;8401;52.528;13.340;2024-03-25T08:00:38;6.00;99.90
16578;DHT22;8401;52.528;13.340;2024-03-25T08:03:04;5.90;99.90
16578;DHT22;8401;52.528;13.340;2024-03-25T08:05:30;6.00;99.90
16578;DHT22;8401;52.528;13.340;2024-03-25T08:07:56;6.10;99.90
16578;DHT22;8401;52.528;13.340;2024-03-25T08:10:21;6.10;99.90
16578;DHT22;8401;52.528;13.340;2024-03-25T08:12:47;6.20;99.90
16578;DHT22;8401;52.528;13.340;2024-03-25T08:15:14;6.40;99.90
16578;DHT22;8401;52.528;13.340;2024-03-25T08:17:39;6.50;99.90
16578;DHT22;8401;52.528;13.340;2024-03-25T08:20:05;6.60;99.90
16578;DHT22;8401;52.528;13.340;2024-03-25T08:22:31;6.70;99.90
16578;DHT22;8401;52.528;13.340;2024-03-25T08:24:57;6.70;99.90
16578;DHT22;8401;52.528;13.340;2024-03-25T08:27:22;6.70;99.90
16578;DHT22;8401;52.528;13.340;2024-03-25T08:29:48;6.80;99.90
16578;DHT22;8401;52.528;13.340;2024-03-25T08:32:16;7.00;99.90
16578;DHT22;8401;52.528;13.340;2024-03-25T08:34:42;7.00;99.90
16578;DHT22;8401;52.528;13.340;2024-03-25T08:37:07;7.10;99.90
16578;DHT22;8401;52.528;13.340;2024-03-25T08:39:33;7.20;99.90
16578;DHT22;8401;52.528;13.340;2024-03-25T08:41:59;7.00;99.90
16578;DHT22;8401;52.528;13.340;2024-03-25T08:44:24;7.00;99.90
16578;DHT22;8401;52.528;13.340;2024-03-25T08:46:50;6.90;99.90
16578;DHT22;8401;52.528;13.340;2024-03-25T08:49:19;6.90;99.90
16578;DHT22;8401;52.528;13.340;2024-03-25T08:51:44;7.00;99.90
16578;DHT22;8401;52.528;13.340;2024-03-25T08:54:10;7.00;99.90
16578;DHT22;8401;52.528;13.340;2024-03-25T08:56:35;7.00;99.90
16578;DHT22;8401;52.528;13.340;2024-03-25T08:59:01;7.00;99.90
16578;DHT22;8401;52.528;13.340;2024-03-25T09:01:27;7.10;99.90
16578;DHT22;8401;52.528;13.340;2024-03-25T09:03:52;7.20;99.90
16578;DHT22;8401;52.528;13.340;2024-03-25T09:06:18;7.10;99.90
16578;DHT22;8401;52.528;13.340;2024-03-25T09:08:44;7.10;99.90
16578;DHT22;8401;52.528;13.340;2024-03-25T09:11:28;7.10;99.90
16578;DHT22;8401;52.528;13.340;2024-03-25T09:13:53;7.20;99.90
16578;DHT22;8401;52.528;13.340;2024-03-25T09:16:19;7.30;99.90
16578;DHT22;8401;52.528;13.340;2024-03-25T09:18:45;7.30;99.90
16578;DHT22;8401;52.528;13.340;2024-03-25T09:21:11;7.20;99.90
16578;DHT22;8401;52.528;13.340;2024-03-25T09:23:36;7.20;99.90
16578;DHT22;8401;52.528;13.340;2024-03-25T09:26:02;7.10;99.90
16578;DHT22;8401;52.528;13.340;2024-03-25T09:28:28;7.10;99.90
16578;DHT22;8401;52.528;13.340;2024-03-25T09:30:53;7.10;99.90
16578;DHT22;8401;52.528;13.340;2024-03-25T09:33:19;7.20;99.90
16578;DHT22;8401;52.528;13.340;2024-03-25T09:35:44;7.20;99.90
16578;DHT22;8401;52.528;13.340;2024-03-25T09:38:10;7.20;99.90
16578;DHT22;8401;52.528;13.340;2024-03-25T09:40:41;7.10;99.90
16578;DHT22;8401;52.528;13.340;2024-03-25T09:43:13;7.20;99.90
16578;DHT22;8401;52.528;13.340;2024-03-25T09:45:44;7.20;99.90
16578;DHT22;8401;52.528;13.340;2024-03-25T09:48:18;7.30;99.90
16578;DHT22;8401;52.528;13.340;2024-03-25T09:50:45;7.40;99.90
16578;DHT22;8401;52.528;13.340;2024-03-25T09:53:10;7.50;99.90
16578;DHT22;8401;52.528;13.340;2024-03-25T09:55:36;7.60;99.90
16578;DHT22;8401;52.528;13.340;2024-03-25T09:58:03;7.70;99.90
16578;DHT22;8401;52.528;13.340;2024-03-25T10:00:29;7.90;99.90
16578;DHT22;8401;52.528;13.340;2024-03-25T10:02:55;8.00;99.90
16578;DHT22;8401;52.528;13.340;2024-03-25T10:05:21;8.30;99.90
16578;DHT22;8401;52.528;13.340;2024-03-25T10:07:50;8.40;99.90
16578;DHT22;8401;52.528;13.340;2024-03-25T10:10:19;8.30;99.90
16578;DHT22;8401;52.528;13.340;2024-03-25T10:12:45;8.40;99.90
16578;DHT22;8401;52.528;13.340;2024-03-25T10:15:18;8.40;99.90
16578;DHT22;8401;52.528;13.340;2024-03-25T10:17:44;8.70;99.90
16578;DHT22;8401;52.528;13.340;2024-03-25T10:20:16;8.80;99.90
16578;DHT22;8401;52.528;13.340;2024-03-25T10:22:42;8.80;99.90
16578;DHT22;8401;52.528;13.340;2024-03-25T10:25:26;8.50;99.90
16578;DHT22;8401;52.528;13.340;2024-03-25T10:27:56;8.50;99.90
16578;DHT22;8401;52.528;13.340;2024-03-25T10:30:22;8.50;99.90
16578;DHT22;8401;52.528;13.340;2024-03-25T10:33:01;8.70;99.90
16578;DHT22;8401;52.528;13.340;2024-03-25T10:35:29;8.70;99.90
16578;DHT22;8401;52.528;13.340;2024-03-25T10:38:09;8.70;99.90
16578;DHT22;8401;52.528;13.340;2024-03-25T10:40:37;8.70;99.90
16578;DHT22;8401;52.528;13.340;2024-03-25T10:43:10;8.70;99.90
16578;DHT22;8401;52.528;13.340;2024-03-25T10:45:47;8.80;99.90
16578;DHT22;8401;52.528;13.340;2024-03-25T10:48:26;8.90;99.90
16578;DHT22;8401;52.528;13.340;2024-03-25T10:50:55;8.80;99.90
16578;DHT22;8401;52.528;13.340;2024-03-25T10:53:22;8.60;99.90
16578;DHT22;8401;52.528;13.340;2024-03-25T10:55:50;8.70;99.90
16578;DHT22;8401;52.528;13.340;2024-03-25T10:58:16;8.60;99.90
16578;DHT22;8401;52.528;13.340;2024-03-25T11:00:43;8.60;99.90
16578;DHT22;8401;52.528;13.340;2024-03-25T11:03:12;8.70;99.90
16578;DHT22;8401;52.528;13.340;2024-03-25T11:05:38;8.70;99.90
16578;DHT22;8401;52.528;13.340;2024-03-25T11:08:14;9.10;99.90
16578;DHT22;8401;52.528;13.340;2024-03-25T11:10:44;9.40;99.90
16578;DHT22;8401;52.528;13.340;2024-03-25T11:13:14;9.60;99.90
16578;DHT22;8401;52.528;13.340;2024-03-25T11:15:44;9.50;99.90
16578;DHT22;8401;52.528;13.340;2024-03-25T11:18:13;9.50;99.90
16578;DHT22;8401;52.528;13.340;2024-03-25T11:20:39;9.40;99.90
16578;DHT22;8401;52.528;13.340;2024-03-25T11:23:12;9.70;99.90
16578;DHT22;8401;52.528;13.340;2024-03-25T11:25:39;9.80;99.90
16578;DHT22;8401;52.528;13.340;2024-03-25T11:28:05;10.10;99.90
16578;DHT22;8401;52.528;13.340;2024-03-25T11:30:31;9.90;99.90
16578;DHT22;8401;52.528;13.340;2024-03-25T11:33:00;9.90;99.90
16578;DHT22;8401;52.528;13.340;2024-03-25T11:35:26;10.20;99.90
16578;DHT22;8401;52.528;13.340;2024-03-25T11:37:52;9.90;99.90
16578;DHT22;8401;52.528;13.340;2024-03-25T11:40:19;9.70;99.90
16578;DHT22;8401;52.528;13.340;2024-03-25T11:42:45;9.60;99.90
16578;DHT22;8401;52.528;13.340;2024-03-25T11:45:19;9.60;99.90
16578;DHT22;8401;52.528;13.340;2024-03-25T11:47:46;10.00;99.90
16578;DHT22;8401;52.528;13.340;2024-03-25T11:50:14;9.60;99.90
16578;DHT22;8401;52.528;13.340;2024-03-25T11:52:40;9.70;99.90
16578;DHT22;8401;52.528;13.340;2024-03-25T11:55:06;9.50;99.90
16578;DHT22;8401;52.528;13.340;2024-03-25T11:57:34;9.70;99.90
16578;DHT22;8401;52.528;13.340;2024-03-25T12:00:01;10.40;99.90
16578;DHT22;8401;52.528;13.340;2024-03-25T12:02:30;10.50;99.90
16578;DHT22;8401;52.528;13.340;2024-03-25T12:04:56;10.30;99.90
16578;DHT22;8401;52.528;13.340;2024-03-25T12:07:22;10.20;99.90
16578;DHT22;8401;52.528;13.340;2024-03-25T12:09:47;10.30;99.90
16578;DHT22;8401;52.528;13.340;2024-03-25T12:12:33;10.50;99.90
16578;DHT22;8401;52.528;13.340;2024-03-25T12:15:00;10.60;99.90
16578;DHT22;8401;52.528;13.340;2024-03-25T12:17:28;10.60;99.90
16578;DHT22;8401;52.528;13.340;2024-03-25T12:20:06;10.60;99.90
16578;DHT22;8401;52.528;13.340;2024-03-25T12:22:36;10.50;99.90
16578;DHT22;8401;52.528;13.340;2024-03-25T12:25:06;10.70;99.90
16578;DHT22;8401;52.528;13.340;2024-03-25T12:27:33;10.50;99.90
16578;DHT22;8401;52.528;13.340;2024-03-25T12:30:05;10.30;99.90
16578;DHT22;8401;52.528;13.340;2024-03-25T12:32:39;10.10;99.90
16578;DHT22;8401;52.528;13.340;2024-03-25T12:35:16;10.10;99.90
16578;DHT22;8401;52.528;13.340;2024-03-25T12:37:43;10.00;99.90
16578;DHT22;8401;52.528;13.340;2024-03-25T12:40:11;9.70;99.90
16578;DHT22;8401;52.528;13.340;2024-03-25T12:42:37;9.40;99.90
16578;DHT22;8401;52.528;13.340;2024-03-25T12:45:04;9.40;99.90
16578;DHT22;8401;52.528;13.340;2024-03-25T12:47:30;9.50;99.90
16578;DHT22;8401;52.528;13.340;2024-03-25T12:49:57;9.40;99.90
16578;DHT22;8401;52.528;13.340;2024-03-25T12:52:22;9.30;99.90
16578;DHT22;8401;52.528;13.340;2024-03-25T12:54:48;9.30;99.90
16578;DHT22;8401;52.528;13.340;2024-03-25T12:57:14;9.40;99.90
16578;DHT22;8401;52.528;13.340;2024-03-25T12:59:40;9.50;99.90
16578;DHT22;8401;52.528;13.340;2024-03-25T13:02:08;9.30;99.90
16578;DHT22;8401;52.528;13.340;2024-03-25T13:04:36;9.60;99.90
16578;DHT22;8401;52.528;13.340;2024-03-25T13:07:03;9.80;99.90
16578;DHT22;8401;52.528;13.340;2024-03-25T13:09:29;10.00;99.90
16578;DHT22;8401;52.528;13.340;2024-03-25T13:11:58;10.10;99.90
16578;DHT22;8401;52.528;13.340;2024-03-25T13:14:25;10.10;99.90
16578;DHT22;8401;52.528;13.340;2024-03-25T13:16:50;10.20;99.90
16578;DHT22;8401;52.528;13.340;2024-03-25T13:19:16;10.30;99.90
16578;DHT22;8401;52.528;13.340;2024-03-25T13:21:42;10.20;99.90
16578;DHT22;8401;52.528;13.340;2024-03-25T13:24:08;9.90;99.90
16578;DHT22;8401;52.528;13.340;2024-03-25T13:26:34;9.90;99.90
16578;DHT22;8401;52.528;13.340;2024-03-25T13:28:59;9.80;99.90
16578;DHT22;8401;52.528;13.340;2024-03-25T13:31:25;10.00;99.90
16578;DHT22;8401;52.528;13.340;2024-03-25T13:33:51;10.30;99.90
16578;DHT22;8401;52.528;13.340;2024-03-25T13:36:17;10.90;99.90
16578;DHT22;8401;52.528;13.340;2024-03-25T13:38:44;10.80;99.90
16578;DHT22;8401;52.528;13.340;2024-03-25T13:41:10;10.80;99.90
16578;DHT22;8401;52.528;13.340;2024-03-25T13:43:35;11.20;99.90
16578;DHT22;8401;52.528;13.340;2024-03-25T13:46:01;11.30;99.90
16578;DHT22;8401;52.528;13.340;2024-03-25T13:48:27;11.40;99.90
16578;DHT22;8401;52.528;13.340;2024-03-25T13:50:55;11.30;99.90
16578;DHT22;8401;52.528;13.340;2024-03-25T13:53:21;11.10;99.90
16578;DHT22;8401;52.528;13.340;2024-03-25T13:55:47;11.10;99.90
16578;DHT22;8401;52.528;13.340;2024-03-25T13:58:13;10.90;99.90
16578;DHT22;8401;52.528;13.340;2024-03-25T14:00:39;11.10;99.90
16578;DHT22;8401;52.528;13.340;2024-03-25T14:03:04;11.30;99.90
16578;DHT22;8401;52.528;13.340;2024-03-25T14:05:30;11.10;99.90
16578;DHT22;8401;52.528;13.340;2024-03-25T14:07:55;10.70;99.90
16578;DHT22;8401;52.528;13.340;2024-03-25T14:10:24;10.80;99.90
16578;DHT22;8401;52.528;13.340;2024-03-25T14:12:50;10.70;99.90
16578;DHT22;8401;52.528;13.340;2024-03-25T14:15:16;10.60;99.90
16578;DHT22;8401;52.528;13.340;2024-03-25T14:17:41;10.70;99.90
16578;DHT22;8401;52.528;13.340;2024-03-25T14:20:07;10.70;99.90
16578;DHT22;8401;52.528;13.340;2024-03-25T14:22:34;10.70;99.90
16578;DHT22;8401;52.528;13.340;2024-03-25T14:25:00;10.60;99.90
16578;DHT22;8401;52.528;13.340;2024-03-25T14:27:26;10.30;99.90
16578;DHT22;8401;52.528;13.340;2024-03-25T14:29:52;10.20;99.90
16578;DHT22;8401;52.528;13.340;2024-03-25T14:32:22;10.10;99.90
16578;DHT22;8401;52.528;13.340;2024-03-25T14:34:48;9.90;99.90
16578;DHT22;8401;52.528;13.340;2024-03-25T14:37:14;9.90;99.90
16578;DHT22;8401;52.528;13.340;2024-03-25T14:39:40;9.90;99.90
16578;DHT22;8401;52.528;13.340;2024-03-25T14:42:08;9.70;99.90
16578;DHT22;8401;52.528;13.340;2024-03-25T14:44:35;9.70;99.90
16578;DHT22;8401;52.528;13.340;2024-03-25T14:47:00;9.70;99.90
16578;DHT22;8401;52.528;13.340;2024-03-25T14:49:26;9.80;99.90
16578;DHT22;8401;52.528;13.340;2024-03-25T14:51:52;10.10;99.90
16578;DHT22;8401;52.528;13.340;2024-03-25T14:54:18;10.60;99.90
16578;DHT22;8401;52.528;13.340;2024-03-25T14:56:44;10.50;99.90
16578;DHT22;8401;52.528;13.340;2024-03-25T14:59:10;10.60;99.90
16578;DHT22;8401;52.528;13.340;2024-03-25T15:01:36;10.70;99.90
16578;DHT22;8401;52.528;13.340;2024-03-25T15:04:03;10.70;99.90
16578;DHT22;8401;52.528;13.340;2024-03-25T15:06:29;10.50;99.90
16578;DHT22;8401;52.528;13.340;2024-03-25T15:08:56;10.60;99.90
16578;DHT22;8401;52.528;13.340;2024-03-25T15:11:25;10.50;99.90
16578;DHT22;8401;52.528;13.340;2024-03-25T15:13:52;9.90;99.90
16578;DHT22;8401;52.528;13.340;2024-03-25T15:16:17;9.70;99.90
16578;DHT22;8401;52.528;13.340;2024-03-25T15:18:43;9.20;99.90
16578;DHT22;8401;52.528;13.340;2024-03-25T15:21:09;9.20;99.90
16578;DHT22;8401;52.528;13.340;2024-03-25T15:23:35;9.10;99.90
16578;DHT22;8401;52.528;13.340;2024-03-25T15:26:00;8.90;99.90
16578;DHT22;8401;52.528;13.340;2024-03-25T15:28:26;8.70;99.90
16578;DHT22;8401;52.528;13.340;2024-03-25T15:30:57;8.60;99.90
16578;DHT22;8401;52.528;13.340;2024-03-25T15:33:22;8.60;99.90
16578;DHT22;8401;52.528;13.340;2024-03-25T15:35:48;8.50;99.90
16578;DHT22;8401;52.528;13.340;2024-03-25T15:38:15;8.50;99.90
16578;DHT22;8401;52.528;13.340;2024-03-25T15:40:40;8.50;99.90